createdAt,value
2018-03-21T00:00:00.054Z,99006
2018-03-21T00:02:27.212Z,99004
2018-03-21T00:04:54.352Z,99003
2018-03-21T00:07:22.117Z,99005
2018-03-21T00:09:49.273Z,99013
2018-03-21T00:12:16.413Z,99008
2018-03-21T00:14:43.574Z,99019
2018-03-21T00:17:10.713Z,99014
2018-03-21T00:19:38.472Z,99011
2018-03-21T00:22:05.633Z,99024
2018-03-21T00:24:32.773Z,99011
2018-03-21T00:26:59.932Z,99014
2018-03-21T00:29:27.076Z,99024
2018-03-21T00:31:54.213Z,99020
2018-03-21T00:34:21.376Z,99026
2018-03-21T00:36:48.513Z,99024
2018-03-21T00:39:15.677Z,99028
2018-03-21T00:41:43.733Z,99033
2018-03-21T00:44:10.893Z,99031
2018-03-21T00:46:38.032Z,99048
2018-03-21T00:49:05.193Z,99024
2018-03-21T00:51:32.337Z,99036
2018-03-21T00:53:59.492Z,99040
2018-03-21T00:56:27.253Z,99040
2018-03-21T00:58:54.393Z,99038
2018-03-21T01:01:21.552Z,99043
2018-03-21T01:03:48.693Z,99040
2018-03-21T01:06:15.853Z,99047
2018-03-21T01:08:43.912Z,99036
2018-03-21T01:11:11.072Z,99030
2018-03-21T01:13:38.213Z,99035
2018-03-21T01:16:05.375Z,99039
2018-03-21T01:18:32.512Z,99044
2018-03-21T01:20:59.673Z,99047
2018-03-21T01:23:26.812Z,99044
2018-03-21T01:25:53.952Z,99043
2018-03-21T01:28:21.112Z,99037
2018-03-21T01:30:50.412Z,99049
2018-03-21T01:33:17.572Z,99040
2018-03-21T01:35:44.713Z,99034
2018-03-21T01:38:11.872Z,99026
2018-03-21T01:40:39.012Z,99025
2018-03-21T01:43:06.172Z,99017
2018-03-21T01:45:33.932Z,99022
2018-03-21T01:48:01.074Z,99025
2018-03-21T01:50:28.234Z,99025
2018-03-21T01:53:10.092Z,99033
2018-03-21T01:55:37.272Z,99026
2018-03-21T01:58:05.335Z,99021
2018-03-21T02:00:32.492Z,99025
2018-03-21T02:02:59.632Z,99016
2018-03-21T02:05:27.713Z,99019
2018-03-21T02:07:55.837Z,99020
2018-03-21T02:10:22.932Z,99014
2018-03-21T02:12:50.072Z,99017
2018-03-21T02:15:17.232Z,99017
2018-03-21T02:17:44.993Z,99019
2018-03-21T02:20:12.153Z,99020
2018-03-21T02:22:39.914Z,99028
2018-03-21T02:25:07.978Z,99033
2018-03-21T02:27:35.132Z,99029
2018-03-21T02:30:02.273Z,99032
2018-03-21T02:32:29.434Z,99036
2018-03-21T02:34:57.192Z,99034
2018-03-21T02:37:24.332Z,99030
2018-03-21T02:39:51.493Z,99030
2018-03-21T02:42:18.631Z,99031
2018-03-21T02:44:45.793Z,99030
2018-03-21T02:47:21.232Z,99033
2018-03-21T02:49:48.372Z,99034
2018-03-21T02:52:15.533Z,99025
2018-03-21T02:54:42.672Z,99023
2018-03-21T02:57:09.832Z,99019
2018-03-21T02:59:36.993Z,99024
2018-03-21T03:02:05.053Z,99023
2018-03-21T03:04:32.219Z,99024
2018-03-21T03:06:59.973Z,99026
2018-03-21T03:09:27.114Z,99023
2018-03-21T03:11:55.192Z,99028
2018-03-21T03:14:22.352Z,99024
2018-03-21T03:16:50.412Z,99025
2018-03-21T03:19:18.112Z,99029
2018-03-21T03:21:45.192Z,99026
2018-03-21T03:24:12.152Z,99034
2018-03-21T03:26:39.312Z,99027
2018-03-21T03:29:06.452Z,99033
2018-03-21T03:31:33.613Z,99031
2018-03-21T03:34:00.752Z,99028
2018-03-21T03:36:27.912Z,99037
2018-03-21T03:38:55.672Z,99043
2018-03-21T03:41:24.352Z,99035
2018-03-21T03:43:51.519Z,99042
2018-03-21T03:46:18.651Z,99040
2018-03-21T03:48:45.795Z,99043
2018-03-21T03:51:12.952Z,99047
2018-03-21T03:53:40.092Z,99047
2018-03-21T03:56:07.252Z,99043
2018-03-21T03:58:34.394Z,99042
2018-03-21T04:01:01.553Z,99036
2018-03-21T04:03:28.693Z,99051
2018-03-21T04:05:55.839Z,99055
2018-03-21T04:08:22.993Z,99054
2018-03-21T04:10:50.454Z,99064
2018-03-21T04:13:17.601Z,99066
2018-03-21T04:15:44.761Z,99064
2018-03-21T04:18:11.901Z,99068
2018-03-21T04:20:47.043Z,99056
2018-03-21T04:23:14.293Z,99061
2018-03-21T04:25:41.340Z,99071
2018-03-21T04:28:08.481Z,99071
2018-03-21T04:30:35.663Z,99077
2018-03-21T04:33:02.781Z,99080
2018-03-21T04:35:29.943Z,99079
2018-03-21T04:37:57.083Z,99081
2018-03-21T04:40:24.241Z,99081
2018-03-21T04:42:52.001Z,99082
2018-03-21T04:45:19.141Z,99080
2018-03-21T04:47:46.301Z,99081
2018-03-21T04:50:14.362Z,99088
2018-03-21T04:52:41.521Z,99090
2018-03-21T04:55:08.661Z,99091
2018-03-21T04:57:35.821Z,99095
2018-03-21T05:00:02.961Z,99089
2018-03-21T05:02:30.120Z,99100
2018-03-21T05:04:57.261Z,99105
2018-03-21T05:07:24.421Z,99107
2018-03-21T05:09:51.561Z,99107
2018-03-21T05:12:18.720Z,99115
2018-03-21T05:14:46.782Z,99118
2018-03-21T05:17:13.933Z,99114
2018-03-21T05:19:41.081Z,99120
2018-03-21T05:22:08.221Z,99116
2018-03-21T05:24:35.381Z,99126
2018-03-21T05:27:02.521Z,99127
2018-03-21T05:29:29.670Z,99132
2018-03-21T05:31:56.830Z,99127
2018-03-21T05:34:23.969Z,99132
2018-03-21T05:36:51.130Z,99137
2018-03-21T05:39:18.270Z,99136
2018-03-21T05:41:45.430Z,99136
2018-03-21T05:44:12.583Z,99139
2018-03-21T05:46:39.730Z,99136
2018-03-21T05:49:07.491Z,99145
2018-03-21T05:51:35.575Z,99147
2018-03-21T05:54:02.714Z,99147
2018-03-21T05:56:29.870Z,99145
2018-03-21T05:58:57.010Z,99153
2018-03-21T06:01:24.170Z,99159
2018-03-21T06:03:51.349Z,99159
2018-03-21T06:06:18.510Z,99159
2018-03-21T06:08:45.694Z,99163
2018-03-21T06:11:13.110Z,99167
2018-03-21T06:13:40.256Z,99167
2018-03-21T06:16:08.329Z,99171
2018-03-21T06:18:36.089Z,99178
2018-03-21T06:21:03.231Z,99182
2018-03-21T06:23:30.390Z,99187
2018-03-21T06:25:58.470Z,99194
2018-03-21T06:28:26.531Z,99198
2018-03-21T06:30:53.693Z,99198
2018-03-21T06:33:20.830Z,99203
2018-03-21T06:35:47.970Z,99204
2018-03-21T06:38:15.130Z,99205
2018-03-21T06:40:42.270Z,99218
2018-03-21T06:43:09.430Z,99218
2018-03-21T06:45:36.572Z,99222
2018-03-21T06:48:03.730Z,99218
2018-03-21T06:50:31.070Z,99228
2018-03-21T06:52:58.210Z,99219
2018-03-21T06:55:25.370Z,99225
2018-03-21T06:58:00.190Z,99225
2018-03-21T07:00:27.343Z,99228
2018-03-21T07:02:54.489Z,99235
2018-03-21T07:05:21.653Z,99241
2018-03-21T07:07:48.810Z,99242
2018-03-21T07:10:16.870Z,99246
2018-03-21T07:12:44.630Z,99256
2018-03-21T07:15:29.910Z,99248
2018-03-21T07:17:57.070Z,99266
2018-03-21T07:20:24.213Z,99261
2018-03-21T07:22:51.969Z,99260
2018-03-21T07:25:19.135Z,99265
2018-03-21T07:27:46.270Z,99272
2018-03-21T07:30:14.350Z,99272
2018-03-21T07:32:42.410Z,99282
2018-03-21T07:35:09.570Z,99276
2018-03-21T07:37:36.704Z,99289
2018-03-21T07:40:04.792Z,99296
2018-03-21T07:42:31.930Z,99295
2018-03-21T07:44:59.070Z,99295
2018-03-21T07:47:26.230Z,99304
2018-03-21T07:49:53.990Z,99299
2018-03-21T07:52:21.150Z,99298
2018-03-21T07:54:48.290Z,99311
2018-03-21T07:57:15.430Z,99308
2018-03-21T07:59:42.589Z,99320
2018-03-21T08:02:09.730Z,99324
2018-03-21T08:04:36.890Z,99326
2018-03-21T08:07:04.950Z,99330
2018-03-21T08:09:32.110Z,99331
2018-03-21T08:11:59.869Z,99328
2018-03-21T08:14:27.048Z,99334
2018-03-21T08:16:54.174Z,99332
2018-03-21T08:19:21.931Z,99342
2018-03-21T08:21:49.094Z,99336
2018-03-21T08:24:16.230Z,99337
2018-03-21T08:26:43.370Z,99339
2018-03-21T08:29:10.529Z,99338
2018-03-21T08:31:37.690Z,99340
2018-03-21T08:34:04.830Z,99347
2018-03-21T08:36:31.990Z,99347
2018-03-21T08:38:59.130Z,99347
2018-03-21T08:41:26.290Z,99346
2018-03-21T08:43:54.050Z,99355
2018-03-21T08:46:21.810Z,99357
2018-03-21T08:48:49.890Z,99344
2018-03-21T08:51:17.030Z,99357
2018-03-21T08:53:44.171Z,99355
2018-03-21T08:56:11.331Z,99357
2018-03-21T08:58:38.470Z,99357
2018-03-21T09:01:05.631Z,99357
2018-03-21T09:03:32.771Z,99358
2018-03-21T09:05:59.930Z,99367
2018-03-21T09:08:27.990Z,99364
2018-03-21T09:10:56.071Z,99348
2018-03-21T09:13:23.830Z,99359
2018-03-21T09:15:50.970Z,99358
2018-03-21T09:18:18.178Z,99358
2018-03-21T09:20:45.290Z,99360
2018-03-21T09:23:13.350Z,99364
2018-03-21T09:25:41.410Z,99366
2018-03-21T09:28:08.572Z,99357
2018-03-21T09:30:35.711Z,99363
2018-03-21T09:33:02.871Z,99353
2018-03-21T09:35:30.016Z,99360
2018-03-21T09:37:57.170Z,99358
2018-03-21T09:40:24.345Z,99356
2018-03-21T09:42:52.390Z,99353
2018-03-21T09:45:20.470Z,99354
2018-03-21T09:47:47.610Z,99359
2018-03-21T09:50:14.770Z,99362
2018-03-21T09:52:41.914Z,99363
2018-03-21T09:55:09.670Z,99362
2018-03-21T09:57:36.808Z,99352
2018-03-21T10:00:03.974Z,99359
2018-03-21T10:02:31.730Z,99351
2018-03-21T10:04:58.890Z,99344
2018-03-21T10:07:26.034Z,99350
2018-03-21T10:09:53.192Z,99348
2018-03-21T10:12:20.333Z,99349
2018-03-21T10:14:47.470Z,99346
2018-03-21T10:17:14.634Z,99349
2018-03-21T10:19:41.770Z,99349
2018-03-21T10:22:08.931Z,99356
2018-03-21T10:24:36.991Z,99348
2018-03-21T10:27:04.150Z,99350
2018-03-21T10:29:33.133Z,99352
2018-03-21T10:32:00.290Z,99344
2018-03-21T10:34:27.430Z,99346
2018-03-21T10:36:54.594Z,99339
2018-03-21T10:39:21.730Z,99346
2018-03-21T10:41:48.890Z,99341
2018-03-21T10:44:16.050Z,99342
2018-03-21T10:46:43.810Z,99349
2018-03-21T10:49:10.950Z,99345
2018-03-21T10:51:38.110Z,99344
2018-03-21T10:54:05.916Z,99349
2018-03-21T10:56:33.010Z,99350
2018-03-21T10:59:00.150Z,99350
2018-03-21T11:01:33.450Z,99347
2018-03-21T11:04:00.610Z,99342
2018-03-21T11:06:27.782Z,99348
2018-03-21T11:08:54.910Z,99338
2018-03-21T11:11:22.053Z,99351
2018-03-21T11:13:49.210Z,99345
2018-03-21T11:16:16.350Z,99339
2018-03-21T11:18:43.565Z,99343
2018-03-21T11:21:10.650Z,99346
2018-03-21T11:23:37.790Z,99343
2018-03-21T11:26:04.950Z,99356
2018-03-21T11:28:32.090Z,99356
2018-03-21T11:30:59.250Z,99371
2018-03-21T11:33:26.390Z,99360
2018-03-21T11:35:53.549Z,99361
2018-03-21T11:38:20.690Z,99369
2018-03-21T11:40:47.848Z,99354
2018-03-21T11:43:14.990Z,99359
2018-03-21T11:45:42.151Z,99364
2018-03-21T11:48:09.910Z,99366
2018-03-21T11:50:37.070Z,99363
2018-03-21T11:53:04.209Z,99367
2018-03-21T11:55:31.877Z,99362
2018-03-21T11:57:59.130Z,99355
2018-03-21T12:00:26.270Z,99356
2018-03-21T12:02:53.433Z,99353
2018-03-21T12:05:20.570Z,99354
2018-03-21T12:07:47.710Z,99354
2018-03-21T12:10:14.870Z,99347
2018-03-21T12:12:42.010Z,99350
2018-03-21T12:15:09.169Z,99352
2018-03-21T12:17:37.230Z,99354
2018-03-21T12:20:04.390Z,99351
2018-03-21T12:22:31.530Z,99349
2018-03-21T12:24:58.699Z,99343
2018-03-21T12:27:26.450Z,99340
2018-03-21T12:29:53.590Z,99344
2018-03-21T12:32:20.750Z,99339
2018-03-21T12:34:48.810Z,99334
2018-03-21T12:37:15.970Z,99339
2018-03-21T12:39:43.130Z,99334
2018-03-21T12:42:10.270Z,99333
2018-03-21T12:44:38.385Z,99334
2018-03-21T12:47:05.492Z,99333
2018-03-21T12:49:32.636Z,99335
2018-03-21T12:51:59.799Z,99327
2018-03-21T12:54:26.930Z,99332
2018-03-21T12:56:54.090Z,99329
2018-03-21T12:59:21.849Z,99331
2018-03-21T13:01:49.011Z,99327
2018-03-21T13:04:17.070Z,99328
2018-03-21T13:06:44.210Z,99344
2018-03-21T13:09:11.370Z,99340
2018-03-21T13:11:38.509Z,99343
2018-03-21T13:14:05.672Z,99340
2018-03-21T13:16:32.810Z,99340
2018-03-21T13:18:59.970Z,99334
2018-03-21T13:21:27.131Z,99342
2018-03-21T13:23:54.270Z,99343
2018-03-21T13:26:22.330Z,99346
2018-03-21T13:28:49.510Z,99349
2018-03-21T13:31:16.630Z,99341
2018-03-21T13:33:43.770Z,99348
2018-03-21T13:36:10.930Z,99345
2018-03-21T13:38:38.090Z,99347
2018-03-21T13:41:05.851Z,99356
2018-03-21T13:43:32.990Z,99351
2018-03-21T13:46:00.154Z,99352
2018-03-21T13:48:27.911Z,99349
2018-03-21T13:50:55.672Z,99342
2018-03-21T13:53:23.130Z,99346
2018-03-21T13:55:50.271Z,99350
2018-03-21T13:58:17.432Z,99344
2018-03-21T14:00:52.024Z,99332
2018-03-21T14:03:19.364Z,99344
2018-03-21T14:05:46.504Z,99341
2018-03-21T14:08:13.668Z,99337
2018-03-21T14:10:41.729Z,99332
2018-03-21T14:13:08.885Z,99340
2018-03-21T14:15:36.025Z,99334
2018-03-21T14:18:03.184Z,99340
2018-03-21T14:20:30.324Z,99335
2018-03-21T14:22:57.485Z,99339
2018-03-21T14:25:24.625Z,99338
2018-03-21T14:27:51.785Z,99338
2018-03-21T14:30:19.842Z,99326
2018-03-21T14:32:46.992Z,99342
2018-03-21T14:35:14.140Z,99338
2018-03-21T14:37:44.100Z,99326
2018-03-21T14:40:11.520Z,99328
2018-03-21T14:42:38.660Z,99328
2018-03-21T14:45:05.820Z,99328
2018-03-21T14:47:32.962Z,99326
2018-03-21T14:50:00.860Z,99325
2018-03-21T14:52:28.024Z,99323
2018-03-21T14:54:55.780Z,99321
2018-03-21T14:57:23.540Z,99328
2018-03-21T14:59:50.701Z,99326
2018-03-21T15:02:18.761Z,99327
2018-03-21T15:04:45.819Z,99328
2018-03-21T15:07:13.178Z,99335
2018-03-21T15:09:39.941Z,99328
2018-03-21T15:12:07.641Z,99331
2018-03-21T15:14:34.719Z,99335
2018-03-21T15:17:01.685Z,99331
2018-03-21T15:19:29.447Z,99327
2018-03-21T15:21:57.214Z,99330
2018-03-21T15:24:24.920Z,99341
2018-03-21T15:26:51.855Z,99342
2018-03-21T15:29:18.886Z,99335
2018-03-21T15:31:45.806Z,99339
2018-03-21T15:34:12.808Z,99330
2018-03-21T15:36:39.873Z,99348
2018-03-21T15:39:06.929Z,99344
2018-03-21T15:41:34.683Z,99344
2018-03-21T15:44:01.495Z,99351
2018-03-21T15:46:28.316Z,99349
2018-03-21T15:48:55.272Z,99356
2018-03-21T15:51:22.387Z,99360
2018-03-21T15:53:49.465Z,99355
2018-03-21T15:56:16.507Z,99364
2018-03-21T15:58:43.385Z,99370
2018-03-21T16:01:10.725Z,99369
2018-03-21T16:03:38.185Z,99373
2018-03-21T16:06:05.646Z,99371
2018-03-21T16:08:32.792Z,99376
2018-03-21T16:10:59.849Z,99374
2018-03-21T16:13:27.112Z,99371
2018-03-21T16:15:54.245Z,99378
2018-03-21T16:18:21.399Z,99383
2018-03-21T16:20:48.261Z,99377
2018-03-21T16:23:16.365Z,99385
2018-03-21T16:25:43.444Z,99385
2018-03-21T16:28:11.517Z,99391
2018-03-21T16:30:38.520Z,99388
2018-03-21T16:33:05.819Z,99394
2018-03-21T16:35:33.296Z,99392
2018-03-21T16:38:00.445Z,99396
2018-03-21T16:40:28.504Z,99394
2018-03-21T16:42:55.968Z,99401
2018-03-21T16:45:23.111Z,99398
2018-03-21T16:47:51.805Z,99407
2018-03-21T16:50:19.864Z,99401
2018-03-21T16:52:46.905Z,99401
2018-03-21T16:55:13.925Z,99406
2018-03-21T16:57:40.985Z,99422
2018-03-21T17:00:08.105Z,99415
2018-03-21T17:02:35.206Z,99416
2018-03-21T17:05:02.326Z,99422
2018-03-21T17:07:29.384Z,99422
2018-03-21T17:09:56.392Z,99426
2018-03-21T17:12:23.592Z,99432
2018-03-21T17:14:51.512Z,99429
2018-03-21T17:17:19.754Z,99440
2018-03-21T17:19:47.834Z,99431
2018-03-21T17:22:15.625Z,99450
2018-03-21T17:24:42.645Z,99453
2018-03-21T17:27:10.325Z,99450
2018-03-21T17:29:38.153Z,99456
2018-03-21T17:32:05.145Z,99468
2018-03-21T17:34:32.205Z,99466
2018-03-21T17:36:59.207Z,99459
2018-03-21T17:39:26.166Z,99464
2018-03-21T17:41:54.025Z,99473
2018-03-21T17:44:21.785Z,99469
2018-03-21T17:46:48.724Z,99461
2018-03-21T17:49:16.504Z,99471
2018-03-21T17:51:44.205Z,99474
2018-03-21T17:54:11.125Z,99477
2018-03-21T17:56:38.105Z,99479
2018-03-21T17:59:05.065Z,99486
2018-03-21T18:01:32.725Z,99487
2018-03-21T18:04:00.192Z,99493
2018-03-21T18:06:28.265Z,99491
2018-03-21T18:08:55.405Z,99504
2018-03-21T18:11:22.872Z,99497
2018-03-21T18:13:50.005Z,99503
2018-03-21T18:16:17.467Z,99502
2018-03-21T18:18:45.895Z,99509
2018-03-21T18:21:12.986Z,99505
2018-03-21T18:23:41.385Z,99503
2018-03-21T18:26:09.765Z,99515
2018-03-21T18:28:37.833Z,99510
2018-03-21T18:31:04.987Z,99512
2018-03-21T18:33:32.124Z,99505
2018-03-21T18:35:59.287Z,99505
2018-03-21T18:38:27.355Z,99515
2018-03-21T18:40:54.885Z,99501
2018-03-21T18:43:22.286Z,99501
2018-03-21T18:45:50.046Z,99507
2018-03-21T18:48:17.465Z,99507
2018-03-21T18:50:44.426Z,99505
2018-03-21T18:53:12.106Z,99505
2018-03-21T18:55:39.965Z,99499
2018-03-21T18:58:06.988Z,99502
2018-03-21T19:00:34.026Z,99512
2018-03-21T19:03:01.085Z,99503
2018-03-21T19:05:28.105Z,99508
2018-03-21T19:07:55.086Z,99506
2018-03-21T19:10:22.205Z,99512
2018-03-21T19:12:50.221Z,99519
2018-03-21T19:15:17.352Z,99519
2018-03-21T19:17:44.805Z,99521
2018-03-21T19:20:11.965Z,99522
2018-03-21T19:22:40.026Z,99525
2018-03-21T19:25:08.125Z,99534
2018-03-21T19:27:36.165Z,99531
2018-03-21T19:30:03.327Z,99531
2018-03-21T19:32:30.772Z,99533
2018-03-21T19:34:58.557Z,99534
2018-03-21T19:37:26.607Z,99532
2018-03-21T19:39:53.765Z,99534
2018-03-21T19:42:20.905Z,99523
2018-03-21T19:44:48.365Z,99527
2018-03-21T19:47:16.745Z,99528
2018-03-21T19:49:44.205Z,99524
2018-03-21T19:52:12.572Z,99516
2018-03-21T19:54:39.926Z,99527
2018-03-21T19:57:07.512Z,99519
2018-03-21T19:59:35.565Z,99520
2018-03-21T20:02:02.725Z,99518
2018-03-21T20:04:29.864Z,99518
2018-03-21T20:06:57.032Z,99529
2018-03-21T20:09:24.472Z,99524
2018-03-21T20:11:51.625Z,99523
2018-03-21T20:14:19.686Z,99522
2018-03-21T20:16:47.145Z,99520
2018-03-21T20:19:14.607Z,99516
2018-03-21T20:21:42.985Z,99512
2018-03-21T20:24:10.429Z,99509
2018-03-21T20:26:37.597Z,99513
2018-03-21T20:29:05.045Z,99515
2018-03-21T20:31:33.112Z,99506
2018-03-21T20:34:00.265Z,99515
2018-03-21T20:36:27.766Z,99514
2018-03-21T20:38:55.192Z,99506
2018-03-21T20:41:22.325Z,99512
2018-03-21T20:43:49.785Z,99512
2018-03-21T20:46:17.845Z,99512
2018-03-21T20:48:45.005Z,99515
2018-03-21T20:51:13.065Z,99504
2018-03-21T20:53:40.232Z,99500
2018-03-21T20:56:07.365Z,99502
2018-03-21T20:58:35.445Z,99498
2018-03-21T21:01:02.991Z,99493
2018-03-21T21:03:30.346Z,99499
2018-03-21T21:05:57.512Z,99492
2018-03-21T21:08:24.959Z,99497
2018-03-21T21:10:52.105Z,99496
2018-03-21T21:13:19.272Z,99503
2018-03-21T21:15:47.354Z,99496
2018-03-21T21:18:15.405Z,99504
2018-03-21T21:20:42.872Z,99499
2018-03-21T21:23:11.246Z,99497
2018-03-21T21:25:38.959Z,99497
2018-03-21T21:28:06.132Z,99499
2018-03-21T21:30:33.525Z,99501
2018-03-21T21:33:00.765Z,99495
2018-03-21T21:35:28.525Z,99498
2018-03-21T21:37:56.585Z,99490
2018-03-21T21:40:24.566Z,99493
2018-03-21T21:42:51.805Z,99504
2018-03-21T21:45:19.192Z,99505
2018-03-21T21:47:47.964Z,99498
2018-03-21T21:50:16.025Z,99500
2018-03-21T21:52:43.486Z,99497
2018-03-21T21:55:10.632Z,99490
2018-03-21T21:57:37.785Z,99498
2018-03-21T22:00:06.165Z,99492
2018-03-21T22:02:34.233Z,99499
2018-03-21T22:05:02.317Z,99498
2018-03-21T22:07:29.446Z,99491
2018-03-21T22:09:56.606Z,99499
2018-03-21T22:12:24.076Z,99490
2018-03-21T22:14:52.125Z,99496
2018-03-21T22:17:19.592Z,99489
2018-03-21T22:19:47.646Z,99488
2018-03-21T22:22:14.805Z,99490
2018-03-21T22:24:41.945Z,99486
2018-03-21T22:27:09.114Z,99491
2018-03-21T22:29:36.245Z,99490
2018-03-21T22:32:03.405Z,99487
2018-03-21T22:34:31.464Z,99486
2018-03-21T22:36:58.952Z,99485
2018-03-21T22:39:26.392Z,99483
2018-03-21T22:41:54.472Z,99483
2018-03-21T22:44:23.145Z,99482
2018-03-21T22:46:50.312Z,99469
2018-03-21T22:49:17.445Z,99471
2018-03-21T22:51:45.525Z,99464
2018-03-21T22:54:12.965Z,99463
2018-03-21T22:56:40.125Z,99462
2018-03-21T22:59:08.185Z,99457
2018-03-21T23:01:35.352Z,99463
2018-03-21T23:04:02.486Z,99456
2018-03-21T23:06:29.645Z,99456
2018-03-21T23:08:56.792Z,99454
2018-03-21T23:11:24.872Z,99455
2018-03-21T23:13:52.005Z,99448
2018-03-21T23:16:19.148Z,99461
2018-03-21T23:18:46.926Z,99451
2018-03-21T23:21:14.985Z,99451
2018-03-21T23:23:42.153Z,99455
2018-03-21T23:26:10.205Z,99449
2018-03-21T23:28:37.353Z,99447
2018-03-21T23:31:04.505Z,99451
2018-03-21T23:33:31.673Z,99448
2018-03-21T23:35:59.305Z,99446
2018-03-21T23:38:26.566Z,99445
2018-03-21T23:40:53.725Z,99442
2018-03-21T23:43:20.874Z,99436
2018-03-21T23:45:48.026Z,99433
2018-03-21T23:48:16.086Z,99436
2018-03-21T23:50:50.313Z,99439
2018-03-21T23:53:18.393Z,99441
2018-03-21T23:55:46.446Z,99429
2018-03-21T23:58:14.526Z,99436
